Forside
METAR-TAF:

METAR-TAF

Lufthavne :

Kenosha, Wisconsin, USA

Breddekreds: 42-35-42N, længdekreds: 087-56-17W, højde: 226 m

Aktuelle vejr

Denne rapport blev lavet for 57 minutter siden, kl. 01:53 UTC
Vind 4 kt fra øst
Temperatur 17°C
Fugtighed 82%
Tryk 1013 hPa
Sigt: 16.1 km
skyfri

METAR: KENW 250153Z 09004KT 10SM CLR 17/14 A2990 RMK AO2 SLP122 T01720144

Tid: 21:50 (02:50 UTC)

Vejrudsigter

Denne rapport blev lavet for 3 timer og 30 minutter siden, kl. 23:20 UTC
Foreløbig gælder fra 25 på 00 UTC til 25 på 24 UTC
Vind 6 kt fra sydsydøst
Sigt: 10 km
skyfri
Fra 25 på 0600 UTC
Vind 3 kt fra syd
Sigt: 10 km
Spredte skyer i en højde af 25000 ft
Fra 25 på 1100 UTC
Vind 4 kt fra sydsydøst
Sigt: 8.0 km
Spredte skyer i en højde af 10000 ft
dis
Fra 25 på 1400 UTC
Vind 7 kt fra syd
Sigt: 10 km
Brudte skyer i en højde af 10000 ft

TAF: KENW 242320Z 2500/2524 15006KT P6SM SKC FM250600 18003KT P6SM SCT250 FM251100 16004KT 5SM BR SCT100 FM251400 19007KT P6SM BKN100

Vejrobservationer og prognoser fra mere end 4000 lufthavne (METAR og TAF).

De gule og røde prikker repræsenterer de meteorologiske stationer.

Flyt musen over at se navnet på stationen.

Så klik over at se vejr observationer og prognoser.

At skifte det kort: Klik på de grønne knapper med et sort kors for at zoome ind; på den grønne knap med en bindestreg for at zoome ud; eller på de grønne pile for tilstødende kort.


METAR-TAF: